sensor_id;sensor_type;location;lat;lon;timestamp;P1;durP1;ratioP1;P2;durP2;ratioP2
12476;SDS011;6303;51.504;6.300;2022-07-23T00:00:14;3.92;;;2.42;;
12476;SDS011;6303;51.504;6.300;2022-07-23T00:02:44;4.38;;;2.50;;
12476;SDS011;6303;51.504;6.300;2022-07-23T00:05:14;2.97;;;2.60;;
12476;SDS011;6303;51.504;6.300;2022-07-23T00:07:41;2.85;;;2.50;;
12476;SDS011;6303;51.504;6.300;2022-07-23T00:10:09;3.72;;;2.55;;
12476;SDS011;6303;51.504;6.300;2022-07-23T00:12:39;3.92;;;2.80;;
12476;SDS011;6303;51.504;6.300;2022-07-23T00:15:07;3.75;;;2.50;;
12476;SDS011;6303;51.504;6.300;2022-07-23T00:17:37;3.10;;;2.70;;
12476;SDS011;6303;51.504;6.300;2022-07-23T00:20:04;3.75;;;2.60;;
12476;SDS011;6303;51.504;6.300;2022-07-23T00:22:32;3.25;;;2.78;;
12476;SDS011;6303;51.504;6.300;2022-07-23T00:25:00;3.05;;;2.70;;
12476;SDS011;6303;51.504;6.300;2022-07-23T00:27:27;3.28;;;2.97;;
12476;SDS011;6303;51.504;6.300;2022-07-23T00:29:54;4.38;;;3.00;;
12476;SDS011;6303;51.504;6.300;2022-07-23T00:32:22;2.90;;;2.70;;
12476;SDS011;6303;51.504;6.300;2022-07-23T00:34:50;2.85;;;2.58;;
12476;SDS011;6303;51.504;6.300;2022-07-23T00:37:17;3.00;;;2.70;;
12476;SDS011;6303;51.504;6.300;2022-07-23T00:39:45;2.72;;;2.53;;
12476;SDS011;6303;51.504;6.300;2022-07-23T00:42:12;3.38;;;2.47;;
12476;SDS011;6303;51.504;6.300;2022-07-23T00:44:39;2.83;;;2.63;;
12476;SDS011;6303;51.504;6.300;2022-07-23T00:47:07;3.08;;;2.80;;
12476;SDS011;6303;51.504;6.300;2022-07-23T00:49:34;3.05;;;2.60;;
12476;SDS011;6303;51.504;6.300;2022-07-23T00:52:03;2.75;;;2.55;;
12476;SDS011;6303;51.504;6.300;2022-07-23T00:54:31;2.90;;;2.50;;
12476;SDS011;6303;51.504;6.300;2022-07-23T00:56:58;4.00;;;2.70;;
12476;SDS011;6303;51.504;6.300;2022-07-23T00:59:25;4.00;;;2.60;;
12476;SDS011;6303;51.504;6.300;2022-07-23T01:01:53;2.78;;;2.42;;
12476;SDS011;6303;51.504;6.300;2022-07-23T01:04:20;2.60;;;2.40;;
12476;SDS011;6303;51.504;6.300;2022-07-23T01:06:47;2.60;;;2.25;;
12476;SDS011;6303;51.504;6.300;2022-07-23T01:09:16;2.75;;;2.55;;
12476;SDS011;6303;51.504;6.300;2022-07-23T01:11:44;2.88;;;2.55;;
12476;SDS011;6303;51.504;6.300;2022-07-23T01:14:12;3.30;;;2.65;;
12476;SDS011;6303;51.504;6.300;2022-07-23T01:16:41;2.90;;;2.60;;
12476;SDS011;6303;51.504;6.300;2022-07-23T01:19:09;3.53;;;2.40;;
12476;SDS011;6303;51.504;6.300;2022-07-23T01:21:37;2.90;;;2.60;;
12476;SDS011;6303;51.504;6.300;2022-07-23T01:24:07;2.85;;;2.50;;
12476;SDS011;6303;51.504;6.300;2022-07-23T01:26:40;2.90;;;2.53;;
12476;SDS011;6303;51.504;6.300;2022-07-23T01:29:08;2.55;;;2.35;;
12476;SDS011;6303;51.504;6.300;2022-07-23T01:31:37;2.58;;;2.38;;
12476;SDS011;6303;51.504;6.300;2022-07-23T01:34:04;2.50;;;2.30;;
12476;SDS011;6303;51.504;6.300;2022-07-23T01:36:32;2.53;;;2.33;;
12476;SDS011;6303;51.504;6.300;2022-07-23T01:38:59;2.45;;;2.25;;
12476;SDS011;6303;51.504;6.300;2022-07-23T01:41:28;2.50;;;2.30;;
12476;SDS011;6303;51.504;6.300;2022-07-23T01:43:55;2.60;;;2.40;;
12476;SDS011;6303;51.504;6.300;2022-07-23T01:46:23;2.70;;;2.50;;
12476;SDS011;6303;51.504;6.300;2022-07-23T01:48:50;3.03;;;2.70;;
12476;SDS011;6303;51.504;6.300;2022-07-23T01:51:47;2.80;;;2.45;;
12476;SDS011;6303;51.504;6.300;2022-07-23T01:54:31;2.58;;;2.35;;
12476;SDS011;6303;51.504;6.300;2022-07-23T01:57:02;3.47;;;2.70;;
12476;SDS011;6303;51.504;6.300;2022-07-23T01:59:29;2.92;;;2.35;;
12476;SDS011;6303;51.504;6.300;2022-07-23T02:01:57;4.65;;;2.42;;
12476;SDS011;6303;51.504;6.300;2022-07-23T02:04:25;3.15;;;2.28;;
12476;SDS011;6303;51.504;6.300;2022-07-23T02:06:52;2.47;;;2.28;;
12476;SDS011;6303;51.504;6.300;2022-07-23T02:09:19;2.78;;;2.50;;
12476;SDS011;6303;51.504;6.300;2022-07-23T02:11:47;2.72;;;2.53;;
12476;SDS011;6303;51.504;6.300;2022-07-23T02:14:19;2.72;;;2.53;;
12476;SDS011;6303;51.504;6.300;2022-07-23T02:16:46;2.75;;;2.55;;
12476;SDS011;6303;51.504;6.300;2022-07-23T02:19:14;2.78;;;2.58;;
12476;SDS011;6303;51.504;6.300;2022-07-23T02:21:41;2.72;;;2.47;;
12476;SDS011;6303;51.504;6.300;2022-07-23T02:24:08;3.17;;;2.83;;
12476;SDS011;6303;51.504;6.300;2022-07-23T02:26:36;3.08;;;2.53;;
12476;SDS011;6303;51.504;6.300;2022-07-23T02:29:05;2.95;;;2.50;;
12476;SDS011;6303;51.504;6.300;2022-07-23T02:31:34;2.70;;;2.50;;
12476;SDS011;6303;51.504;6.300;2022-07-23T02:34:01;2.67;;;2.42;;
12476;SDS011;6303;51.504;6.300;2022-07-23T02:36:29;2.45;;;2.25;;
12476;SDS011;6303;51.504;6.300;2022-07-23T02:38:57;2.58;;;2.38;;
12476;SDS011;6303;51.504;6.300;2022-07-23T02:41:25;2.83;;;2.45;;
12476;SDS011;6303;51.504;6.300;2022-07-23T02:43:52;2.75;;;2.55;;
12476;SDS011;6303;51.504;6.300;2022-07-23T02:46:20;2.58;;;2.40;;
12476;SDS011;6303;51.504;6.300;2022-07-23T02:48:49;2.60;;;2.40;;
12476;SDS011;6303;51.504;6.300;2022-07-23T02:51:16;2.92;;;2.60;;
12476;SDS011;6303;51.504;6.300;2022-07-23T02:53:51;3.35;;;2.40;;
12476;SDS011;6303;51.504;6.300;2022-07-23T02:56:19;3.10;;;2.80;;
12476;SDS011;6303;51.504;6.300;2022-07-23T02:58:46;3.13;;;2.72;;
12476;SDS011;6303;51.504;6.300;2022-07-23T03:01:13;2.90;;;2.70;;
12476;SDS011;6303;51.504;6.300;2022-07-23T03:03:40;2.80;;;2.58;;
12476;SDS011;6303;51.504;6.300;2022-07-23T03:06:09;2.67;;;2.47;;
12476;SDS011;6303;51.504;6.300;2022-07-23T03:08:38;2.85;;;2.55;;
12476;SDS011;6303;51.504;6.300;2022-07-23T03:11:05;2.70;;;2.47;;
12476;SDS011;6303;51.504;6.300;2022-07-23T03:13:36;3.13;;;2.40;;
12476;SDS011;6303;51.504;6.300;2022-07-23T03:16:04;2.90;;;2.60;;
12476;SDS011;6303;51.504;6.300;2022-07-23T03:18:31;2.63;;;2.42;;
12476;SDS011;6303;51.504;6.300;2022-07-23T03:20:58;2.78;;;2.55;;
12476;SDS011;6303;51.504;6.300;2022-07-23T03:23:28;3.03;;;2.40;;
12476;SDS011;6303;51.504;6.300;2022-07-23T03:25:55;2.83;;;2.63;;
12476;SDS011;6303;51.504;6.300;2022-07-23T03:28:22;2.28;;;2.17;;
12476;SDS011;6303;51.504;6.300;2022-07-23T03:30:49;3.08;;;2.58;;
12476;SDS011;6303;51.504;6.300;2022-07-23T03:33:16;3.10;;;2.80;;
12476;SDS011;6303;51.504;6.300;2022-07-23T03:35:45;2.70;;;2.50;;
12476;SDS011;6303;51.504;6.300;2022-07-23T03:38:21;2.88;;;2.58;;
12476;SDS011;6303;51.504;6.300;2022-07-23T03:40:50;2.83;;;2.63;;
12476;SDS011;6303;51.504;6.300;2022-07-23T03:43:17;2.97;;;2.78;;
12476;SDS011;6303;51.504;6.300;2022-07-23T03:45:45;2.97;;;2.70;;
12476;SDS011;6303;51.504;6.300;2022-07-23T03:48:13;3.00;;;2.80;;
12476;SDS011;6303;51.504;6.300;2022-07-23T03:50:40;2.72;;;2.50;;
12476;SDS011;6303;51.504;6.300;2022-07-23T03:53:07;5.28;;;2.80;;
12476;SDS011;6303;51.504;6.300;2022-07-23T03:55:34;3.10;;;2.80;;
12476;SDS011;6303;51.504;6.300;2022-07-23T03:58:03;2.85;;;2.60;;
12476;SDS011;6303;51.504;6.300;2022-07-23T04:00:31;2.95;;;2.65;;
12476;SDS011;6303;51.504;6.300;2022-07-23T04:02:58;2.67;;;2.47;;
12476;SDS011;6303;51.504;6.300;2022-07-23T04:05:26;3.50;;;2.35;;
12476;SDS011;6303;51.504;6.300;2022-07-23T04:08:03;4.03;;;2.70;;
12476;SDS011;6303;51.504;6.300;2022-07-23T04:10:31;2.80;;;2.55;;
12476;SDS011;6303;51.504;6.300;2022-07-23T04:12:59;2.83;;;2.63;;
12476;SDS011;6303;51.504;6.300;2022-07-23T04:15:27;3.08;;;2.63;;
12476;SDS011;6303;51.504;6.300;2022-07-23T04:17:54;2.97;;;2.70;;
12476;SDS011;6303;51.504;6.300;2022-07-23T04:20:27;2.70;;;2.50;;
12476;SDS011;6303;51.504;6.300;2022-07-23T04:22:58;3.58;;;2.47;;
12476;SDS011;6303;51.504;6.300;2022-07-23T04:25:25;3.67;;;2.70;;
12476;SDS011;6303;51.504;6.300;2022-07-23T04:27:52;3.00;;;2.70;;
12476;SDS011;6303;51.504;6.300;2022-07-23T04:30:19;3.40;;;2.78;;
12476;SDS011;6303;51.504;6.300;2022-07-23T04:32:48;3.20;;;2.90;;
12476;SDS011;6303;51.504;6.300;2022-07-23T04:35:20;3.10;;;2.60;;
12476;SDS011;6303;51.504;6.300;2022-07-23T04:37:51;3.35;;;2.70;;
12476;SDS011;6303;51.504;6.300;2022-07-23T04:40:18;3.55;;;2.70;;
12476;SDS011;6303;51.504;6.300;2022-07-23T04:42:45;3.72;;;2.80;;
12476;SDS011;6303;51.504;6.300;2022-07-23T04:45:13;2.88;;;2.67;;
12476;SDS011;6303;51.504;6.300;2022-07-23T04:47:41;3.35;;;2.90;;
12476;SDS011;6303;51.504;6.300;2022-07-23T04:50:10;3.55;;;2.60;;
12476;SDS011;6303;51.504;6.300;2022-07-23T04:52:39;2.70;;;2.50;;
12476;SDS011;6303;51.504;6.300;2022-07-23T04:55:06;2.70;;;2.50;;
12476;SDS011;6303;51.504;6.300;2022-07-23T04:57:34;2.60;;;2.40;;
12476;SDS011;6303;51.504;6.300;2022-07-23T05:00:01;3.53;;;2.70;;
12476;SDS011;6303;51.504;6.300;2022-07-23T05:02:30;3.10;;;2.90;;
12476;SDS011;6303;51.504;6.300;2022-07-23T05:04:57;3.38;;;2.92;;
12476;SDS011;6303;51.504;6.300;2022-07-23T05:07:28;3.22;;;2.92;;
12476;SDS011;6303;51.504;6.300;2022-07-23T05:09:55;2.85;;;2.50;;
12476;SDS011;6303;51.504;6.300;2022-07-23T05:12:22;3.65;;;2.63;;
12476;SDS011;6303;51.504;6.300;2022-07-23T05:14:49;3.80;;;2.80;;
12476;SDS011;6303;51.504;6.300;2022-07-23T05:17:18;2.85;;;2.60;;
12476;SDS011;6303;51.504;6.300;2022-07-23T05:19:45;3.45;;;3.13;;
12476;SDS011;6303;51.504;6.300;2022-07-23T05:22:12;4.78;;;2.80;;
12476;SDS011;6303;51.504;6.300;2022-07-23T05:24:41;2.92;;;2.55;;
12476;SDS011;6303;51.504;6.300;2022-07-23T05:27:08;3.55;;;2.42;;
12476;SDS011;6303;51.504;6.300;2022-07-23T05:29:35;2.97;;;2.70;;
12476;SDS011;6303;51.504;6.300;2022-07-23T05:32:03;3.10;;;2.80;;
12476;SDS011;6303;51.504;6.300;2022-07-23T05:34:32;2.65;;;2.30;;
12476;SDS011;6303;51.504;6.300;2022-07-23T05:36:59;3.00;;;2.67;;
12476;SDS011;6303;51.504;6.300;2022-07-23T05:39:27;4.90;;;2.50;;
12476;SDS011;6303;51.504;6.300;2022-07-23T05:41:56;2.85;;;2.65;;
12476;SDS011;6303;51.504;6.300;2022-07-23T05:44:24;2.95;;;2.75;;
12476;SDS011;6303;51.504;6.300;2022-07-23T05:46:52;3.03;;;2.67;;
12476;SDS011;6303;51.504;6.300;2022-07-23T05:49:22;3.22;;;2.67;;
12476;SDS011;6303;51.504;6.300;2022-07-23T05:51:55;2.72;;;2.53;;
12476;SDS011;6303;51.504;6.300;2022-07-23T05:54:36;3.28;;;2.97;;
12476;SDS011;6303;51.504;6.300;2022-07-23T05:57:05;3.08;;;2.85;;
12476;SDS011;6303;51.504;6.300;2022-07-23T05:59:32;3.28;;;3.00;;
12476;SDS011;6303;51.504;6.300;2022-07-23T06:01:59;3.97;;;3.00;;
12476;SDS011;6303;51.504;6.300;2022-07-23T06:04:26;4.82;;;3.60;;
12476;SDS011;6303;51.504;6.300;2022-07-23T06:07:11;3.60;;;3.30;;
12476;SDS011;6303;51.504;6.300;2022-07-23T06:09:39;3.40;;;3.10;;
12476;SDS011;6303;51.504;6.300;2022-07-23T06:12:08;3.33;;;3.05;;
12476;SDS011;6303;51.504;6.300;2022-07-23T06:14:35;3.70;;;3.33;;
12476;SDS011;6303;51.504;6.300;2022-07-23T06:17:02;3.00;;;2.80;;
12476;SDS011;6303;51.504;6.300;2022-07-23T06:19:30;3.30;;;3.00;;
12476;SDS011;6303;51.504;6.300;2022-07-23T06:21:58;3.15;;;2.85;;
12476;SDS011;6303;51.504;6.300;2022-07-23T06:24:27;3.33;;;3.00;;
12476;SDS011;6303;51.504;6.300;2022-07-23T06:26:54;3.97;;;3.50;;
12476;SDS011;6303;51.504;6.300;2022-07-23T06:29:22;4.13;;;3.50;;
12476;SDS011;6303;51.504;6.300;2022-07-23T06:31:50;3.45;;;3.10;;
12476;SDS011;6303;51.504;6.300;2022-07-23T06:34:17;5.47;;;3.22;;
12476;SDS011;6303;51.504;6.300;2022-07-23T06:36:44;3.30;;;3.03;;
12476;SDS011;6303;51.504;6.300;2022-07-23T06:39:11;3.45;;;3.15;;
12476;SDS011;6303;51.504;6.300;2022-07-23T06:41:38;4.13;;;3.20;;
12476;SDS011;6303;51.504;6.300;2022-07-23T06:44:05;3.85;;;3.28;;
12476;SDS011;6303;51.504;6.300;2022-07-23T06:46:35;3.58;;;3.28;;
12476;SDS011;6303;51.504;6.300;2022-07-23T06:49:03;5.55;;;3.65;;
12476;SDS011;6303;51.504;6.300;2022-07-23T06:51:30;3.35;;;3.05;;
12476;SDS011;6303;51.504;6.300;2022-07-23T06:54:00;3.67;;;3.30;;
12476;SDS011;6303;51.504;6.300;2022-07-23T06:56:27;3.92;;;2.58;;
12476;SDS011;6303;51.504;6.300;2022-07-23T06:58:54;15.52;;;6.05;;
12476;SDS011;6303;51.504;6.300;2022-07-23T07:01:21;21.90;;;6.88;;
12476;SDS011;6303;51.504;6.300;2022-07-23T07:03:49;19.52;;;5.10;;
12476;SDS011;6303;51.504;6.300;2022-07-23T07:06:16;10.65;;;4.53;;
12476;SDS011;6303;51.504;6.300;2022-07-23T07:08:43;8.90;;;4.10;;
12476;SDS011;6303;51.504;6.300;2022-07-23T07:11:12;7.57;;;3.83;;
12476;SDS011;6303;51.504;6.300;2022-07-23T07:13:39;6.45;;;3.30;;
12476;SDS011;6303;51.504;6.300;2022-07-23T07:16:06;4.68;;;3.28;;
12476;SDS011;6303;51.504;6.300;2022-07-23T07:18:33;3.58;;;2.95;;
12476;SDS011;6303;51.504;6.300;2022-07-23T07:21:02;3.40;;;3.10;;
12476;SDS011;6303;51.504;6.300;2022-07-23T07:23:29;3.22;;;3.00;;
12476;SDS011;6303;51.504;6.300;2022-07-23T07:25:56;5.30;;;3.20;;
12476;SDS011;6303;51.504;6.300;2022-07-23T07:28:23;3.50;;;3.20;;
12476;SDS011;6303;51.504;6.300;2022-07-23T07:30:50;3.47;;;2.83;;
12476;SDS011;6303;51.504;6.300;2022-07-23T07:33:17;5.95;;;3.22;;
12476;SDS011;6303;51.504;6.300;2022-07-23T07:35:44;3.70;;;3.10;;
12476;SDS011;6303;51.504;6.300;2022-07-23T07:38:12;4.55;;;3.20;;
12476;SDS011;6303;51.504;6.300;2022-07-23T07:40:39;10.70;;;4.95;;
12476;SDS011;6303;51.504;6.300;2022-07-23T07:43:06;10.82;;;5.72;;
12476;SDS011;6303;51.504;6.300;2022-07-23T07:45:33;9.00;;;4.63;;
12476;SDS011;6303;51.504;6.300;2022-07-23T07:48:00;12.57;;;5.50;;
12476;SDS011;6303;51.504;6.300;2022-07-23T07:50:28;8.65;;;4.93;;
12476;SDS011;6303;51.504;6.300;2022-07-23T07:52:55;7.97;;;4.10;;
12476;SDS011;6303;51.504;6.300;2022-07-23T07:55:23;6.90;;;4.30;;
12476;SDS011;6303;51.504;6.300;2022-07-23T07:57:50;5.40;;;4.22;;
12476;SDS011;6303;51.504;6.300;2022-07-23T08:00:17;6.90;;;4.13;;
12476;SDS011;6303;51.504;6.300;2022-07-23T08:02:45;4.28;;;3.63;;
12476;SDS011;6303;51.504;6.300;2022-07-23T08:05:13;5.18;;;4.00;;
12476;SDS011;6303;51.504;6.300;2022-07-23T08:07:44;5.18;;;3.80;;
12476;SDS011;6303;51.504;6.300;2022-07-23T08:10:11;6.40;;;4.20;;
12476;SDS011;6303;51.504;6.300;2022-07-23T08:12:43;4.78;;;3.70;;
12476;SDS011;6303;51.504;6.300;2022-07-23T08:15:11;4.18;;;3.78;;
12476;SDS011;6303;51.504;6.300;2022-07-23T08:17:40;4.07;;;3.38;;
12476;SDS011;6303;51.504;6.300;2022-07-23T08:20:08;4.43;;;3.10;;
12476;SDS011;6303;51.504;6.300;2022-07-23T08:22:43;4.10;;;3.70;;
12476;SDS011;6303;51.504;6.300;2022-07-23T08:25:11;3.78;;;3.47;;
12476;SDS011;6303;51.504;6.300;2022-07-23T08:27:39;3.58;;;3.38;;
12476;SDS011;6303;51.504;6.300;2022-07-23T08:30:08;3.58;;;3.28;;
12476;SDS011;6303;51.504;6.300;2022-07-23T08:35:22;4.30;;;3.50;;
12476;SDS011;6303;51.504;6.300;2022-07-23T08:37:51;3.90;;;3.60;;
12476;SDS011;6303;51.504;6.300;2022-07-23T08:40:18;4.13;;;3.42;;
12476;SDS011;6303;51.504;6.300;2022-07-23T08:42:46;3.78;;;3.20;;
12476;SDS011;6303;51.504;6.300;2022-07-23T08:45:17;3.85;;;3.47;;
12476;SDS011;6303;51.504;6.300;2022-07-23T08:47:47;3.78;;;3.47;;
12476;SDS011;6303;51.504;6.300;2022-07-23T08:50:16;6.13;;;3.67;;
12476;SDS011;6303;51.504;6.300;2022-07-23T08:52:43;4.18;;;3.78;;
12476;SDS011;6303;51.504;6.300;2022-07-23T08:55:10;4.50;;;4.10;;
12476;SDS011;6303;51.504;6.300;2022-07-23T08:57:38;4.78;;;4.07;;
12476;SDS011;6303;51.504;6.300;2022-07-23T09:00:05;6.25;;;3.90;;
12476;SDS011;6303;51.504;6.300;2022-07-23T09:02:45;3.78;;;3.38;;
12476;SDS011;6303;51.504;6.300;2022-07-23T09:05:13;3.55;;;3.35;;
12476;SDS011;6303;51.504;6.300;2022-07-23T09:10:46;3.92;;;3.50;;
12476;SDS011;6303;51.504;6.300;2022-07-23T09:13:29;4.05;;;3.33;;
12476;SDS011;6303;51.504;6.300;2022-07-23T09:15:59;3.80;;;3.40;;
12476;SDS011;6303;51.504;6.300;2022-07-23T09:18:30;5.78;;;3.72;;
12476;SDS011;6303;51.504;6.300;2022-07-23T09:21:05;5.20;;;3.80;;
12476;SDS011;6303;51.504;6.300;2022-07-23T09:23:36;4.63;;;3.80;;
12476;SDS011;6303;51.504;6.300;2022-07-23T09:26:10;3.88;;;3.50;;
12476;SDS011;6303;51.504;6.300;2022-07-23T09:28:50;3.65;;;3.33;;
12476;SDS011;6303;51.504;6.300;2022-07-23T09:31:19;3.42;;;3.20;;
12476;SDS011;6303;51.504;6.300;2022-07-23T09:33:47;4.32;;;3.30;;
12476;SDS011;6303;51.504;6.300;2022-07-23T09:36:14;3.60;;;3.30;;
12476;SDS011;6303;51.504;6.300;2022-07-23T09:38:47;3.60;;;3.30;;
12476;SDS011;6303;51.504;6.300;2022-07-23T09:41:15;3.45;;;3.08;;
12476;SDS011;6303;51.504;6.300;2022-07-23T09:43:43;3.40;;;3.20;;
12476;SDS011;6303;51.504;6.300;2022-07-23T09:46:16;3.33;;;3.13;;
12476;SDS011;6303;51.504;6.300;2022-07-23T09:48:45;4.20;;;3.90;;
12476;SDS011;6303;51.504;6.300;2022-07-23T09:51:14;4.05;;;3.70;;
12476;SDS011;6303;51.504;6.300;2022-07-23T09:53:43;3.72;;;3.50;;
12476;SDS011;6303;51.504;6.300;2022-07-23T09:56:10;3.75;;;3.42;;
12476;SDS011;6303;51.504;6.300;2022-07-23T09:58:40;3.63;;;3.42;;
12476;SDS011;6303;51.504;6.300;2022-07-23T10:01:12;4.22;;;3.60;;
12476;SDS011;6303;51.504;6.300;2022-07-23T10:03:40;3.60;;;3.38;;
12476;SDS011;6303;51.504;6.300;2022-07-23T10:06:29;3.97;;;3.70;;
12476;SDS011;6303;51.504;6.300;2022-07-23T10:09:24;4.10;;;3.70;;
12476;SDS011;6303;51.504;6.300;2022-07-23T10:12:15;4.05;;;3.75;;
12476;SDS011;6303;51.504;6.300;2022-07-23T10:14:56;5.80;;;3.83;;
12476;SDS011;6303;51.504;6.300;2022-07-23T10:17:23;4.03;;;3.58;;
12476;SDS011;6303;51.504;6.300;2022-07-23T10:19:51;3.95;;;3.65;;
12476;SDS011;6303;51.504;6.300;2022-07-23T10:22:20;4.03;;;3.55;;
12476;SDS011;6303;51.504;6.300;2022-07-23T10:24:52;3.92;;;3.65;;
12476;SDS011;6303;51.504;6.300;2022-07-23T10:27:34;4.05;;;3.58;;
12476;SDS011;6303;51.504;6.300;2022-07-23T10:30:10;3.53;;;3.33;;
12476;SDS011;6303;51.504;6.300;2022-07-23T10:32:45;3.40;;;3.20;;
12476;SDS011;6303;51.504;6.300;2022-07-23T10:35:31;3.85;;;3.47;;
12476;SDS011;6303;51.504;6.300;2022-07-23T10:38:11;3.55;;;3.13;;
12476;SDS011;6303;51.504;6.300;2022-07-23T10:40:52;3.58;;;3.38;;
12476;SDS011;6303;51.504;6.300;2022-07-23T10:43:21;3.45;;;3.20;;
12476;SDS011;6303;51.504;6.300;2022-07-23T10:45:48;3.60;;;3.30;;
12476;SDS011;6303;51.504;6.300;2022-07-23T10:48:16;3.33;;;3.13;;
12476;SDS011;6303;51.504;6.300;2022-07-23T10:59:28;3.63;;;3.40;;
12476;SDS011;6303;51.504;6.300;2022-07-23T11:01:55;4.00;;;3.70;;
12476;SDS011;6303;51.504;6.300;2022-07-23T11:04:49;3.97;;;3.70;;
12476;SDS011;6303;51.504;6.300;2022-07-23T11:07:16;3.83;;;3.53;;
12476;SDS011;6303;51.504;6.300;2022-07-23T11:09:45;3.67;;;3.30;;
12476;SDS011;6303;51.504;6.300;2022-07-23T11:12:32;3.83;;;3.63;;
12476;SDS011;6303;51.504;6.300;2022-07-23T11:15:01;3.65;;;3.25;;
12476;SDS011;6303;51.504;6.300;2022-07-23T11:17:30;4.40;;;3.30;;
12476;SDS011;6303;51.504;6.300;2022-07-23T11:20:17;3.78;;;3.47;;
12476;SDS011;6303;51.504;6.300;2022-07-23T11:22:49;3.80;;;3.50;;
12476;SDS011;6303;51.504;6.300;2022-07-23T11:25:32;3.97;;;3.67;;
12476;SDS011;6303;51.504;6.300;2022-07-23T11:28:08;4.03;;;3.72;;
12476;SDS011;6303;51.504;6.300;2022-07-23T11:30:43;4.28;;;3.40;;
12476;SDS011;6303;51.504;6.300;2022-07-23T11:33:18;3.50;;;3.30;;
12476;SDS011;6303;51.504;6.300;2022-07-23T11:35:49;3.70;;;3.38;;
12476;SDS011;6303;51.504;6.300;2022-07-23T11:38:30;3.28;;;3.08;;
12476;SDS011;6303;51.504;6.300;2022-07-23T11:40:59;3.83;;;3.53;;
12476;SDS011;6303;51.504;6.300;2022-07-23T11:43:26;3.70;;;3.40;;
12476;SDS011;6303;51.504;6.300;2022-07-23T11:45:54;3.53;;;3.30;;
12476;SDS011;6303;51.504;6.300;2022-07-23T11:48:25;3.55;;;3.25;;
12476;SDS011;6303;51.504;6.300;2022-07-23T11:50:53;3.95;;;3.55;;
12476;SDS011;6303;51.504;6.300;2022-07-23T11:53:22;4.82;;;3.30;;
12476;SDS011;6303;51.504;6.300;2022-07-23T11:55:50;3.50;;;3.20;;
12476;SDS011;6303;51.504;6.300;2022-07-23T11:58:18;3.40;;;3.20;;
12476;SDS011;6303;51.504;6.300;2022-07-23T12:00:45;3.78;;;3.47;;
12476;SDS011;6303;51.504;6.300;2022-07-23T12:03:13;3.67;;;3.40;;
12476;SDS011;6303;51.504;6.300;2022-07-23T12:05:40;3.40;;;3.20;;
12476;SDS011;6303;51.504;6.300;2022-07-23T12:08:08;3.97;;;3.70;;
12476;SDS011;6303;51.504;6.300;2022-07-23T12:10:37;4.15;;;3.30;;
12476;SDS011;6303;51.504;6.300;2022-07-23T12:13:07;3.63;;;3.33;;
12476;SDS011;6303;51.504;6.300;2022-07-23T12:15:38;3.78;;;3.50;;
12476;SDS011;6303;51.504;6.300;2022-07-23T12:18:08;3.80;;;3.50;;
12476;SDS011;6303;51.504;6.300;2022-07-23T12:20:37;3.72;;;3.42;;
12476;SDS011;6303;51.504;6.300;2022-07-23T12:23:07;3.78;;;3.58;;
12476;SDS011;6303;51.504;6.300;2022-07-23T12:25:37;4.15;;;3.47;;
12476;SDS011;6303;51.504;6.300;2022-07-23T12:28:06;3.55;;;3.35;;
12476;SDS011;6303;51.504;6.300;2022-07-23T12:30:34;3.60;;;3.40;;
12476;SDS011;6303;51.504;6.300;2022-07-23T12:33:05;4.40;;;3.53;;
12476;SDS011;6303;51.504;6.300;2022-07-23T12:35:35;3.90;;;3.60;;
12476;SDS011;6303;51.504;6.300;2022-07-23T12:38:05;3.63;;;3.42;;
12476;SDS011;6303;51.504;6.300;2022-07-23T12:40:35;4.43;;;4.03;;
12476;SDS011;6303;51.504;6.300;2022-07-23T12:43:05;3.95;;;3.58;;
12476;SDS011;6303;51.504;6.300;2022-07-23T12:45:44;4.18;;;3.88;;
12476;SDS011;6303;51.504;6.300;2022-07-23T12:48:15;4.00;;;3.70;;
12476;SDS011;6303;51.504;6.300;2022-07-23T12:50:55;4.07;;;3.75;;
12476;SDS011;6303;51.504;6.300;2022-07-23T12:53:25;3.90;;;3.50;;
12476;SDS011;6303;51.504;6.300;2022-07-23T12:55:57;3.67;;;3.47;;
12476;SDS011;6303;51.504;6.300;2022-07-23T12:58:26;4.30;;;4.00;;
12476;SDS011;6303;51.504;6.300;2022-07-23T13:01:06;3.85;;;3.60;;
12476;SDS011;6303;51.504;6.300;2022-07-23T13:03:34;4.20;;;3.83;;
12476;SDS011;6303;51.504;6.300;2022-07-23T13:06:04;4.00;;;3.70;;
12476;SDS011;6303;51.504;6.300;2022-07-23T13:08:33;3.58;;;3.38;;
12476;SDS011;6303;51.504;6.300;2022-07-23T13:11:02;4.07;;;3.78;;
12476;SDS011;6303;51.504;6.300;2022-07-23T13:13:31;3.80;;;3.50;;
12476;SDS011;6303;51.504;6.300;2022-07-23T13:16:00;4.82;;;3.67;;
12476;SDS011;6303;51.504;6.300;2022-07-23T13:18:30;4.15;;;3.50;;
12476;SDS011;6303;51.504;6.300;2022-07-23T13:20:57;3.85;;;3.50;;
12476;SDS011;6303;51.504;6.300;2022-07-23T13:23:24;3.80;;;3.50;;
12476;SDS011;6303;51.504;6.300;2022-07-23T13:25:52;3.80;;;3.50;;
12476;SDS011;6303;51.504;6.300;2022-07-23T13:28:20;3.80;;;3.50;;
12476;SDS011;6303;51.504;6.300;2022-07-23T13:30:49;4.03;;;3.70;;
12476;SDS011;6303;51.504;6.300;2022-07-23T13:33:17;3.67;;;3.42;;
12476;SDS011;6303;51.504;6.300;2022-07-23T13:35:46;3.80;;;3.60;;
12476;SDS011;6303;51.504;6.300;2022-07-23T13:38:14;3.90;;;3.60;;
12476;SDS011;6303;51.504;6.300;2022-07-23T13:40:42;4.05;;;3.80;;
12476;SDS011;6303;51.504;6.300;2022-07-23T13:43:11;4.03;;;3.72;;
12476;SDS011;6303;51.504;6.300;2022-07-23T13:45:39;4.80;;;3.75;;
12476;SDS011;6303;51.504;6.300;2022-07-23T13:48:08;3.90;;;3.60;;
12476;SDS011;6303;51.504;6.300;2022-07-23T13:50:36;3.90;;;3.53;;
12476;SDS011;6303;51.504;6.300;2022-07-23T13:53:06;4.13;;;3.83;;
12476;SDS011;6303;51.504;6.300;2022-07-23T13:55:36;3.88;;;3.50;;
12476;SDS011;6303;51.504;6.300;2022-07-23T13:58:04;4.65;;;3.63;;
12476;SDS011;6303;51.504;6.300;2022-07-23T14:00:33;4.20;;;3.80;;
12476;SDS011;6303;51.504;6.300;2022-07-23T14:03:01;3.85;;;3.55;;
12476;SDS011;6303;51.504;6.300;2022-07-23T14:05:30;3.78;;;3.38;;
12476;SDS011;6303;51.504;6.300;2022-07-23T14:07:57;3.70;;;3.50;;
12476;SDS011;6303;51.504;6.300;2022-07-23T14:10:26;3.90;;;3.60;;
12476;SDS011;6303;51.504;6.300;2022-07-23T14:12:53;3.97;;;3.78;;
12476;SDS011;6303;51.504;6.300;2022-07-23T14:15:21;7.07;;;3.90;;
12476;SDS011;6303;51.504;6.300;2022-07-23T14:17:49;4.25;;;3.47;;
12476;SDS011;6303;51.504;6.300;2022-07-23T14:20:16;4.10;;;3.72;;
12476;SDS011;6303;51.504;6.300;2022-07-23T14:22:43;3.83;;;3.53;;
12476;SDS011;6303;51.504;6.300;2022-07-23T14:25:10;4.30;;;3.92;;
12476;SDS011;6303;51.504;6.300;2022-07-23T14:27:39;4.88;;;3.95;;
12476;SDS011;6303;51.504;6.300;2022-07-23T14:30:07;4.03;;;3.70;;
12476;SDS011;6303;51.504;6.300;2022-07-23T14:32:35;4.22;;;3.92;;
12476;SDS011;6303;51.504;6.300;2022-07-23T14:35:03;4.82;;;3.80;;
12476;SDS011;6303;51.504;6.300;2022-07-23T14:37:31;4.05;;;3.75;;
12476;SDS011;6303;51.504;6.300;2022-07-23T14:39:58;3.95;;;3.72;;
12476;SDS011;6303;51.504;6.300;2022-07-23T14:42:25;8.15;;;4.13;;
12476;SDS011;6303;51.504;6.300;2022-07-23T14:44:53;5.25;;;3.92;;
12476;SDS011;6303;51.504;6.300;2022-07-23T14:47:20;4.68;;;4.03;;
12476;SDS011;6303;51.504;6.300;2022-07-23T14:49:48;7.28;;;3.70;;
12476;SDS011;6303;51.504;6.300;2022-07-23T14:52:15;5.68;;;3.80;;
12476;SDS011;6303;51.504;6.300;2022-07-23T14:54:42;3.83;;;3.60;;
12476;SDS011;6303;51.504;6.300;2022-07-23T14:57:09;3.90;;;3.70;;
12476;SDS011;6303;51.504;6.300;2022-07-23T14:59:36;4.40;;;4.00;;
12476;SDS011;6303;51.504;6.300;2022-07-23T15:02:05;5.13;;;4.10;;
12476;SDS011;6303;51.504;6.300;2022-07-23T15:04:32;4.18;;;3.83;;
12476;SDS011;6303;51.504;6.300;2022-07-23T15:07:00;4.60;;;4.13;;
12476;SDS011;6303;51.504;6.300;2022-07-23T15:09:27;3.90;;;3.55;;
12476;SDS011;6303;51.504;6.300;2022-07-23T15:11:55;4.10;;;3.80;;
12476;SDS011;6303;51.504;6.300;2022-07-23T15:14:22;4.20;;;3.80;;
12476;SDS011;6303;51.504;6.300;2022-07-23T15:16:49;4.50;;;4.13;;
12476;SDS011;6303;51.504;6.300;2022-07-23T15:19:18;4.88;;;4.35;;
12476;SDS011;6303;51.504;6.300;2022-07-23T15:21:45;4.78;;;3.97;;
12476;SDS011;6303;51.504;6.300;2022-07-23T15:24:12;4.18;;;3.88;;
12476;SDS011;6303;51.504;6.300;2022-07-23T15:26:39;4.20;;;3.90;;